sensor_id;sensor_type;location;lat;lon;timestamp;pressure;altitude;pressure_sealevel;temperature;humidity
71643;BME280;59438;45.014;39.006;2023-01-26T00:00:45;102394.22;;;-3.93;74.43
71643;BME280;59438;45.014;39.006;2023-01-26T00:03:11;102402.84;;;-3.93;74.42
71643;BME280;59438;45.014;39.006;2023-01-26T00:05:38;102398.56;;;-3.92;75.05
71643;BME280;59438;45.014;39.006;2023-01-26T00:08:04;102405.25;;;-3.96;74.50
71643;BME280;59438;45.014;39.006;2023-01-26T00:10:31;102406.38;;;-3.91;73.96
71643;BME280;59438;45.014;39.006;2023-01-26T00:12:58;102394.91;;;-3.97;74.26
71643;BME280;59438;45.014;39.006;2023-01-26T00:15:25;102412.50;;;-3.87;74.21
71643;BME280;59438;45.014;39.006;2023-01-26T00:17:52;102404.88;;;-3.86;73.62
71643;BME280;59438;45.014;39.006;2023-01-26T00:20:18;102410.19;;;-3.82;73.79
71643;BME280;59438;45.014;39.006;2023-01-26T00:22:44;102404.16;;;-3.83;73.79
71643;BME280;59438;45.014;39.006;2023-01-26T00:25:11;102402.41;;;-3.84;74.15
71643;BME280;59438;45.014;39.006;2023-01-26T00:27:37;102405.72;;;-3.87;73.95
71643;BME280;59438;45.014;39.006;2023-01-26T00:30:04;102400.41;;;-3.90;73.57
71643;BME280;59438;45.014;39.006;2023-01-26T00:32:33;102396.97;;;-3.90;73.53
71643;BME280;59438;45.014;39.006;2023-01-26T00:35:00;102390.06;;;-3.91;73.55
71643;BME280;59438;45.014;39.006;2023-01-26T00:37:27;102397.84;;;-3.90;72.88
71643;BME280;59438;45.014;39.006;2023-01-26T00:39:53;102402.84;;;-3.93;73.45
71643;BME280;59438;45.014;39.006;2023-01-26T00:42:19;102404.44;;;-3.95;72.99
71643;BME280;59438;45.014;39.006;2023-01-26T00:44:46;102399.97;;;-3.99;72.87
71643;BME280;59438;45.014;39.006;2023-01-26T00:47:13;102372.03;;;-4.27;73.00
71643;BME280;59438;45.014;39.006;2023-01-26T00:49:40;102405.28;;;-4.12;73.02
71643;BME280;59438;45.014;39.006;2023-01-26T00:52:07;102404.84;;;-4.21;72.87
71643;BME280;59438;45.014;39.006;2023-01-26T00:54:33;102406.53;;;-4.22;72.91
71643;BME280;59438;45.014;39.006;2023-01-26T00:57:00;102413.09;;;-4.27;72.87
71643;BME280;59438;45.014;39.006;2023-01-26T00:59:26;102405.16;;;-4.32;73.60
71643;BME280;59438;45.014;39.006;2023-01-26T01:01:53;102408.47;;;-4.34;72.99
71643;BME280;59438;45.014;39.006;2023-01-26T01:04:19;102393.53;;;-4.41;73.43
71643;BME280;59438;45.014;39.006;2023-01-26T01:06:47;102398.75;;;-4.40;73.42
71643;BME280;59438;45.014;39.006;2023-01-26T01:09:13;102398.69;;;-4.41;72.92
71643;BME280;59438;45.014;39.006;2023-01-26T01:11:40;102396.75;;;-4.46;72.68
71643;BME280;59438;45.014;39.006;2023-01-26T01:14:06;102385.44;;;-4.49;72.59
71643;BME280;59438;45.014;39.006;2023-01-26T01:16:32;102388.75;;;-4.52;72.58
71643;BME280;59438;45.014;39.006;2023-01-26T01:18:59;102353.50;;;-4.72;72.51
71643;BME280;59438;45.014;39.006;2023-01-26T01:21:25;102362.47;;;-4.64;72.84
71643;BME280;59438;45.014;39.006;2023-01-26T01:23:53;102385.94;;;-4.56;73.07
71643;BME280;59438;45.014;39.006;2023-01-26T01:26:19;102382.44;;;-4.58;72.89
71643;BME280;59438;45.014;39.006;2023-01-26T01:28:46;102363.97;;;-4.68;73.05
71643;BME280;59438;45.014;39.006;2023-01-26T01:31:14;102366.50;;;-4.69;73.28
71643;BME280;59438;45.014;39.006;2023-01-26T01:33:40;102386.91;;;-4.54;73.36
71643;BME280;59438;45.014;39.006;2023-01-26T01:36:09;102369.50;;;-4.60;73.49
71643;BME280;59438;45.014;39.006;2023-01-26T01:38:36;102376.44;;;-4.59;73.13
71643;BME280;59438;45.014;39.006;2023-01-26T01:41:04;102384.44;;;-4.53;72.97
71643;BME280;59438;45.014;39.006;2023-01-26T01:43:31;102388.97;;;-4.47;73.08
71643;BME280;59438;45.014;39.006;2023-01-26T01:45:58;102384.00;;;-4.44;73.00
71643;BME280;59438;45.014;39.006;2023-01-26T01:48:28;102393.53;;;-4.41;73.63
71643;BME280;59438;45.014;39.006;2023-01-26T01:50:58;102369.19;;;-4.50;73.26
71643;BME280;59438;45.014;39.006;2023-01-26T01:53:32;102381.53;;;-4.42;73.51
71643;BME280;59438;45.014;39.006;2023-01-26T01:56:01;102357.56;;;-4.59;73.43
71643;BME280;59438;45.014;39.006;2023-01-26T01:58:32;102388.50;;;-4.40;72.96
71643;BME280;59438;45.014;39.006;2023-01-26T02:01:01;102386.41;;;-4.47;72.60
71643;BME280;59438;45.014;39.006;2023-01-26T02:03:28;102388.91;;;-4.49;73.14
71643;BME280;59438;45.014;39.006;2023-01-26T02:05:58;102367.50;;;-4.66;73.24
71643;BME280;59438;45.014;39.006;2023-01-26T02:08:29;102393.88;;;-4.52;73.61
71643;BME280;59438;45.014;39.006;2023-01-26T02:10:59;102347.50;;;-4.73;73.42
71643;BME280;59438;45.014;39.006;2023-01-26T02:13:30;102375.47;;;-4.61;73.37
71643;BME280;59438;45.014;39.006;2023-01-26T02:15:59;102388.84;;;-4.50;73.80
71643;BME280;59438;45.014;39.006;2023-01-26T02:18:26;102377.53;;;-4.54;73.32
71643;BME280;59438;45.014;39.006;2023-01-26T02:20:55;102371.84;;;-4.48;72.92
71643;BME280;59438;45.014;39.006;2023-01-26T02:23:32;102388.31;;;-4.43;73.58
71643;BME280;59438;45.014;39.006;2023-01-26T02:26:06;102371.09;;;-4.46;73.73
71643;BME280;59438;45.014;39.006;2023-01-26T02:28:33;102370.22;;;-4.46;72.82
71643;BME280;59438;45.014;39.006;2023-01-26T02:30:59;102379.66;;;-4.45;73.34
71643;BME280;59438;45.014;39.006;2023-01-26T02:33:27;102366.63;;;-4.50;73.47
71643;BME280;59438;45.014;39.006;2023-01-26T02:35:54;102357.44;;;-4.62;73.40
71643;BME280;59438;45.014;39.006;2023-01-26T02:38:21;102356.03;;;-4.56;73.79
71643;BME280;59438;45.014;39.006;2023-01-26T02:40:52;102377.38;;;-4.40;73.47
71643;BME280;59438;45.014;39.006;2023-01-26T02:43:22;102387.69;;;-4.39;73.09
71643;BME280;59438;45.014;39.006;2023-01-26T02:45:49;102378.31;;;-4.38;73.34
71643;BME280;59438;45.014;39.006;2023-01-26T02:48:16;102375.75;;;-4.38;73.86
71643;BME280;59438;45.014;39.006;2023-01-26T02:50:42;102381.75;;;-4.38;73.41
71643;BME280;59438;45.014;39.006;2023-01-26T02:53:08;102352.69;;;-4.55;73.71
71643;BME280;59438;45.014;39.006;2023-01-26T02:55:35;102380.63;;;-4.43;73.46
71643;BME280;59438;45.014;39.006;2023-01-26T02:58:03;102363.75;;;-4.56;73.64
71643;BME280;59438;45.014;39.006;2023-01-26T03:00:33;102347.00;;;-4.66;74.28
71643;BME280;59438;45.014;39.006;2023-01-26T03:03:00;102376.22;;;-4.46;73.96
71643;BME280;59438;45.014;39.006;2023-01-26T03:05:27;102375.19;;;-4.49;73.32
71643;BME280;59438;45.014;39.006;2023-01-26T03:07:53;102374.19;;;-4.53;73.57
71643;BME280;59438;45.014;39.006;2023-01-26T03:10:20;102378.25;;;-4.56;74.02
71643;BME280;59438;45.014;39.006;2023-01-26T03:12:46;102372.16;;;-4.58;74.12
71643;BME280;59438;45.014;39.006;2023-01-26T03:15:13;102372.00;;;-4.61;74.25
71643;BME280;59438;45.014;39.006;2023-01-26T03:17:40;102372.91;;;-4.61;74.19
71643;BME280;59438;45.014;39.006;2023-01-26T03:20:08;102381.47;;;-4.60;74.73
71643;BME280;59438;45.014;39.006;2023-01-26T03:22:35;102371.13;;;-4.62;74.17
71643;BME280;59438;45.014;39.006;2023-01-26T03:25:01;102380.66;;;-4.59;74.61
71643;BME280;59438;45.014;39.006;2023-01-26T03:27:27;102373.78;;;-4.60;74.53
71643;BME280;59438;45.014;39.006;2023-01-26T03:29:54;102378.03;;;-4.61;74.66
71643;BME280;59438;45.014;39.006;2023-01-26T03:32:22;102378.09;;;-4.59;74.36
71643;BME280;59438;45.014;39.006;2023-01-26T03:34:50;102379.03;;;-4.57;74.40
71643;BME280;59438;45.014;39.006;2023-01-26T03:37:16;102382.56;;;-4.55;74.95
71643;BME280;59438;45.014;39.006;2023-01-26T03:39:42;102375.59;;;-4.58;74.89
71643;BME280;59438;45.014;39.006;2023-01-26T03:42:09;102372.16;;;-4.58;74.80
71643;BME280;59438;45.014;39.006;2023-01-26T03:44:35;102381.69;;;-4.56;74.83
71643;BME280;59438;45.014;39.006;2023-01-26T03:47:01;102382.50;;;-4.57;74.72
71643;BME280;59438;45.014;39.006;2023-01-26T03:49:28;102385.78;;;-4.59;75.09
71643;BME280;59438;45.014;39.006;2023-01-26T03:51:55;102393.56;;;-4.58;74.68
71643;BME280;59438;45.014;39.006;2023-01-26T03:54:22;102392.69;;;-4.58;75.03
71643;BME280;59438;45.014;39.006;2023-01-26T03:56:48;102394.44;;;-4.57;75.14
71643;BME280;59438;45.014;39.006;2023-01-26T03:59:14;102401.44;;;-4.55;75.21
71643;BME280;59438;45.014;39.006;2023-01-26T04:01:42;102391.16;;;-4.55;75.22
71643;BME280;59438;45.014;39.006;2023-01-26T04:04:10;102404.00;;;-4.55;74.77
71643;BME280;59438;45.014;39.006;2023-01-26T04:06:37;102400.47;;;-4.57;74.82
71643;BME280;59438;45.014;39.006;2023-01-26T04:09:05;102404.94;;;-4.53;74.76
71643;BME280;59438;45.014;39.006;2023-01-26T04:11:31;102405.00;;;-4.51;75.18
71643;BME280;59438;45.014;39.006;2023-01-26T04:13:57;102407.84;;;-4.47;75.42
71643;BME280;59438;45.014;39.006;2023-01-26T04:16:24;102403.72;;;-4.43;74.93
71643;BME280;59438;45.014;39.006;2023-01-26T04:18:50;102414.28;;;-4.37;74.99
71643;BME280;59438;45.014;39.006;2023-01-26T04:21:17;102412.00;;;-4.32;74.99
71643;BME280;59438;45.014;39.006;2023-01-26T04:23:43;102416.38;;;-4.30;74.96
71643;BME280;59438;45.014;39.006;2023-01-26T04:26:11;102419.03;;;-4.28;75.60
71643;BME280;59438;45.014;39.006;2023-01-26T04:28:37;102405.81;;;-4.36;75.25
71643;BME280;59438;45.014;39.006;2023-01-26T04:31:04;102397.88;;;-4.40;75.22
71643;BME280;59438;45.014;39.006;2023-01-26T04:33:30;102393.41;;;-4.44;74.83
71643;BME280;59438;45.014;39.006;2023-01-26T04:36:02;102424.09;;;-4.30;75.82
71643;BME280;59438;45.014;39.006;2023-01-26T04:38:28;102409.34;;;-4.34;75.03
71643;BME280;59438;45.014;39.006;2023-01-26T04:40:54;102428.25;;;-4.32;75.53
71643;BME280;59438;45.014;39.006;2023-01-26T04:43:22;102397.81;;;-4.42;74.77
71643;BME280;59438;45.014;39.006;2023-01-26T04:45:56;102418.22;;;-4.27;75.54
71643;BME280;59438;45.014;39.006;2023-01-26T04:48:23;102421.75;;;-4.25;75.27
71643;BME280;59438;45.014;39.006;2023-01-26T04:50:53;102408.47;;;-4.34;75.52
71643;BME280;59438;45.014;39.006;2023-01-26T04:53:19;102430.25;;;-4.26;75.39
71643;BME280;59438;45.014;39.006;2023-01-26T04:55:45;102436.41;;;-4.22;75.41
71643;BME280;59438;45.014;39.006;2023-01-26T04:58:12;102433.84;;;-4.22;75.29
71643;BME280;59438;45.014;39.006;2023-01-26T05:00:39;102429.34;;;-4.27;75.61
71643;BME280;59438;45.014;39.006;2023-01-26T05:03:06;102426.09;;;-4.24;75.55
71643;BME280;59438;45.014;39.006;2023-01-26T05:05:34;102403.72;;;-4.43;75.77
71643;BME280;59438;45.014;39.006;2023-01-26T05:08:01;102445.88;;;-4.21;75.75
71643;BME280;59438;45.014;39.006;2023-01-26T05:10:27;102444.09;;;-4.22;75.44
71643;BME280;59438;45.014;39.006;2023-01-26T05:12:54;102438.53;;;-4.32;75.46
71643;BME280;59438;45.014;39.006;2023-01-26T05:15:20;102452.63;;;-4.23;75.28
71643;BME280;59438;45.014;39.006;2023-01-26T05:17:48;102455.28;;;-4.22;75.49
71643;BME280;59438;45.014;39.006;2023-01-26T05:20:15;102457.19;;;-4.18;75.79
71643;BME280;59438;45.014;39.006;2023-01-26T05:22:42;102456.56;;;-4.14;75.87
71643;BME280;59438;45.014;39.006;2023-01-26T05:25:09;102449.88;;;-4.10;75.52
71643;BME280;59438;45.014;39.006;2023-01-26T05:27:35;102452.28;;;-4.13;75.23
71643;BME280;59438;45.014;39.006;2023-01-26T05:30:02;102452.38;;;-4.12;75.74
71643;BME280;59438;45.014;39.006;2023-01-26T05:32:29;102445.06;;;-4.20;75.75
71643;BME280;59438;45.014;39.006;2023-01-26T05:34:57;102453.91;;;-4.15;75.60
71643;BME280;59438;45.014;39.006;2023-01-26T05:37:24;102467.78;;;-4.12;75.92
71643;BME280;59438;45.014;39.006;2023-01-26T05:39:51;102445.56;;;-4.28;75.68
71643;BME280;59438;45.014;39.006;2023-01-26T05:42:17;102461.44;;;-4.18;76.41
71643;BME280;59438;45.014;39.006;2023-01-26T05:44:43;102470.34;;;-4.12;76.04
71643;BME280;59438;45.014;39.006;2023-01-26T05:47:10;102415.84;;;-4.40;76.06
71643;BME280;59438;45.014;39.006;2023-01-26T05:49:36;102463.75;;;-4.07;76.25
71643;BME280;59438;45.014;39.006;2023-01-26T05:52:07;102459.47;;;-4.06;76.41
71643;BME280;59438;45.014;39.006;2023-01-26T05:54:33;102471.19;;;-3.95;76.76
71643;BME280;59438;45.014;39.006;2023-01-26T05:57:00;102474.72;;;-3.93;76.33
71643;BME280;59438;45.014;39.006;2023-01-26T05:59:26;102468.53;;;-3.96;76.04
71643;BME280;59438;45.014;39.006;2023-01-26T06:01:52;102472.22;;;-3.91;75.83
71643;BME280;59438;45.014;39.006;2023-01-26T06:04:19;102471.66;;;-3.86;76.02
71643;BME280;59438;45.014;39.006;2023-01-26T06:06:45;102443.44;;;-4.02;75.84
71643;BME280;59438;45.014;39.006;2023-01-26T06:09:13;102462.97;;;-3.88;76.14
71643;BME280;59438;45.014;39.006;2023-01-26T06:11:39;102473.56;;;-3.81;75.74
71643;BME280;59438;45.014;39.006;2023-01-26T06:14:06;102465.53;;;-3.88;76.31
71643;BME280;59438;45.014;39.006;2023-01-26T06:16:32;102463.16;;;-3.85;76.07
71643;BME280;59438;45.014;39.006;2023-01-26T06:18:59;102466.41;;;-3.87;75.81
71643;BME280;59438;45.014;39.006;2023-01-26T06:21:25;102468.81;;;-3.74;75.97
71643;BME280;59438;45.014;39.006;2023-01-26T06:23:51;102464.56;;;-3.73;76.81
71643;BME280;59438;45.014;39.006;2023-01-26T06:26:19;102448.28;;;-3.74;76.25
71643;BME280;59438;45.014;39.006;2023-01-26T06:28:46;102478.47;;;-3.52;76.66
71643;BME280;59438;45.014;39.006;2023-01-26T06:31:12;102470.09;;;-3.48;76.27
71643;BME280;59438;45.014;39.006;2023-01-26T06:33:38;102436.78;;;-3.64;76.34
71643;BME280;59438;45.014;39.006;2023-01-26T06:36:06;102460.91;;;-3.42;76.42
71643;BME280;59438;45.014;39.006;2023-01-26T06:38:33;102477.50;;;-3.36;75.96
71643;BME280;59438;45.014;39.006;2023-01-26T06:41:00;102468.19;;;-3.34;75.81
71643;BME280;59438;45.014;39.006;2023-01-26T06:43:28;102465.03;;;-3.28;76.15
71643;BME280;59438;45.014;39.006;2023-01-26T06:45:55;102457.84;;;-3.35;75.62
71643;BME280;59438;45.014;39.006;2023-01-26T06:48:21;102461.88;;;-3.22;75.46
71643;BME280;59438;45.014;39.006;2023-01-26T06:50:50;102480.94;;;-3.17;75.77
71643;BME280;59438;45.014;39.006;2023-01-26T06:53:28;102444.34;;;-3.31;76.55
71643;BME280;59438;45.014;39.006;2023-01-26T06:55:55;102479.63;;;-3.09;76.00
71643;BME280;59438;45.014;39.006;2023-01-26T06:58:22;102467.44;;;-3.13;76.11
71643;BME280;59438;45.014;39.006;2023-01-26T07:00:50;102469.59;;;-3.05;75.95
71643;BME280;59438;45.014;39.006;2023-01-26T07:03:16;102480.06;;;-3.00;76.32
71643;BME280;59438;45.014;39.006;2023-01-26T07:05:43;102446.88;;;-3.13;76.06
71643;BME280;59438;45.014;39.006;2023-01-26T07:08:09;102479.34;;;-2.97;76.31
71643;BME280;59438;45.014;39.006;2023-01-26T07:10:35;102479.25;;;-2.99;76.18
71643;BME280;59438;45.014;39.006;2023-01-26T07:13:03;102486.38;;;-2.93;76.35
71643;BME280;59438;45.014;39.006;2023-01-26T07:15:29;102475.31;;;-2.92;75.65
71643;BME280;59438;45.014;39.006;2023-01-26T07:17:58;102472.72;;;-2.92;75.75
71643;BME280;59438;45.014;39.006;2023-01-26T07:20:25;102475.44;;;-2.89;75.82
71643;BME280;59438;45.014;39.006;2023-01-26T07:22:51;102417.34;;;-3.21;76.10
71643;BME280;59438;45.014;39.006;2023-01-26T07:25:18;102455.25;;;-2.99;75.18
71643;BME280;59438;45.014;39.006;2023-01-26T07:27:44;102462.78;;;-2.85;75.73
71643;BME280;59438;45.014;39.006;2023-01-26T07:30:11;102464.63;;;-2.82;75.90
71643;BME280;59438;45.014;39.006;2023-01-26T07:32:38;102456.63;;;-2.88;75.61
71643;BME280;59438;45.014;39.006;2023-01-26T07:35:06;102474.25;;;-2.78;75.72
71643;BME280;59438;45.014;39.006;2023-01-26T07:37:33;102468.94;;;-2.81;75.23
71643;BME280;59438;45.014;39.006;2023-01-26T07:39:59;102470.94;;;-2.75;75.79
71643;BME280;59438;45.014;39.006;2023-01-26T07:42:25;102469.44;;;-2.70;75.34
71643;BME280;59438;45.014;39.006;2023-01-26T07:44:52;102465.25;;;-2.68;75.72
71643;BME280;59438;45.014;39.006;2023-01-26T07:47:18;102469.59;;;-2.67;74.85
71643;BME280;59438;45.014;39.006;2023-01-26T07:49:44;102467.09;;;-2.66;75.84
71643;BME280;59438;45.014;39.006;2023-01-26T07:52:12;102458.53;;;-2.65;75.61
71643;BME280;59438;45.014;39.006;2023-01-26T07:54:39;102438.44;;;-2.73;75.27
71643;BME280;59438;45.014;39.006;2023-01-26T07:57:05;102465.03;;;-2.53;76.23
71643;BME280;59438;45.014;39.006;2023-01-26T07:59:31;102435.28;;;-2.68;75.65
71643;BME280;59438;45.014;39.006;2023-01-26T08:01:57;102448.88;;;-2.51;76.21
71643;BME280;59438;45.014;39.006;2023-01-26T08:04:24;102461.38;;;-2.39;75.78
71643;BME280;59438;45.014;39.006;2023-01-26T08:06:50;102463.63;;;-2.27;75.69
71643;BME280;59438;45.014;39.006;2023-01-26T08:09:18;102466.53;;;-2.19;76.39
71643;BME280;59438;45.014;39.006;2023-01-26T08:11:44;102457.28;;;-2.16;76.17
71643;BME280;59438;45.014;39.006;2023-01-26T08:14:11;102449.81;;;-2.10;75.91
71643;BME280;59438;45.014;39.006;2023-01-26T08:16:37;102439.34;;;-2.13;75.72
71643;BME280;59438;45.014;39.006;2023-01-26T08:19:04;102408.28;;;-2.17;75.87
71643;BME280;59438;45.014;39.006;2023-01-26T08:21:30;102461.25;;;-1.82;75.52
71643;BME280;59438;45.014;39.006;2023-01-26T08:23:56;102456.38;;;-1.76;75.89
71643;BME280;59438;45.014;39.006;2023-01-26T08:26:24;102453.25;;;-1.69;75.74
71643;BME280;59438;45.014;39.006;2023-01-26T08:28:50;102447.50;;;-1.62;74.93
71643;BME280;59438;45.014;39.006;2023-01-26T08:31:18;102445.09;;;-1.57;75.84
71643;BME280;59438;45.014;39.006;2023-01-26T08:33:46;102418.28;;;-1.62;75.82
71643;BME280;59438;45.014;39.006;2023-01-26T08:36:14;102406.66;;;-1.52;75.36
71643;BME280;59438;45.014;39.006;2023-01-26T08:38:41;102441.06;;;-1.29;75.08
71643;BME280;59438;45.014;39.006;2023-01-26T08:41:07;102430.88;;;-1.26;74.77
71643;BME280;59438;45.014;39.006;2023-01-26T08:43:35;102423.13;;;-1.26;75.00
71643;BME280;59438;45.014;39.006;2023-01-26T08:46:02;102423.13;;;-1.26;75.01
71643;BME280;59438;45.014;39.006;2023-01-26T08:48:29;102409.31;;;-1.28;74.91
71643;BME280;59438;45.014;39.006;2023-01-26T08:50:57;102406.84;;;-1.25;75.55
71643;BME280;59438;45.014;39.006;2023-01-26T08:53:24;102403.50;;;-1.23;75.31
71643;BME280;59438;45.014;39.006;2023-01-26T08:55:51;102424.72;;;-1.07;74.88
71643;BME280;59438;45.014;39.006;2023-01-26T08:58:17;102410.94;;;-1.08;75.12
71643;BME280;59438;45.014;39.006;2023-01-26T09:00:48;102433.84;;;-0.93;75.42
71643;BME280;59438;45.014;39.006;2023-01-26T09:03:14;102410.41;;;-0.99;74.89
71643;BME280;59438;45.014;39.006;2023-01-26T09:05:41;102426.09;;;-0.94;74.74
71643;BME280;59438;45.014;39.006;2023-01-26T09:08:08;102423.31;;;-0.99;74.93
71643;BME280;59438;45.014;39.006;2023-01-26T09:10:36;102418.03;;;-1.02;75.13
71643;BME280;59438;45.014;39.006;2023-01-26T09:13:09;102415.63;;;-0.97;75.38
71643;BME280;59438;45.014;39.006;2023-01-26T09:15:36;102413.88;;;-0.98;75.44
71643;BME280;59438;45.014;39.006;2023-01-26T09:18:05;102412.19;;;-0.98;75.09
71643;BME280;59438;45.014;39.006;2023-01-26T09:20:31;102391.38;;;-1.03;75.30
71643;BME280;59438;45.014;39.006;2023-01-26T09:22:57;102411.53;;;-0.92;75.18
71643;BME280;59438;45.014;39.006;2023-01-26T09:25:24;102409.94;;;-0.89;75.27
71643;BME280;59438;45.014;39.006;2023-01-26T09:27:50;102407.41;;;-0.87;74.73
71643;BME280;59438;45.014;39.006;2023-01-26T09:30:16;102406.78;;;-0.82;75.22
71643;BME280;59438;45.014;39.006;2023-01-26T09:32:43;102406.13;;;-0.76;75.50
71643;BME280;59438;45.014;39.006;2023-01-26T09:35:11;102409.66;;;-0.74;75.55
71643;BME280;59438;45.014;39.006;2023-01-26T09:37:37;102376.53;;;-0.86;75.33
71643;BME280;59438;45.014;39.006;2023-01-26T09:40:04;102381.28;;;-0.72;75.54
71643;BME280;59438;45.014;39.006;2023-01-26T09:42:59;102378.44;;;-0.56;76.62
71643;BME280;59438;45.014;39.006;2023-01-26T09:45:33;102346.06;;;-0.72;75.90
71643;BME280;59438;45.014;39.006;2023-01-26T09:48:13;102387.53;;;-0.42;75.93
71643;BME280;59438;45.014;39.006;2023-01-26T09:50:48;102368.53;;;-0.44;76.61
71643;BME280;59438;45.014;39.006;2023-01-26T09:53:20;102384.56;;;-0.28;75.94
71643;BME280;59438;45.014;39.006;2023-01-26T09:55:50;102355.97;;;-0.34;75.69
71643;BME280;59438;45.014;39.006;2023-01-26T09:58:20;102349.16;;;-0.32;76.00
71643;BME280;59438;45.014;39.006;2023-01-26T10:00:51;102373.31;;;-0.05;75.71
71643;BME280;59438;45.014;39.006;2023-01-26T10:03:26;102364.88;;;0.01;76.14
71643;BME280;59438;45.014;39.006;2023-01-26T10:05:58;102363.38;;;0.08;75.98
71643;BME280;59438;45.014;39.006;2023-01-26T10:08:27;102362.72;;;0.13;75.05
71643;BME280;59438;45.014;39.006;2023-01-26T10:10:56;102325.34;;;0.04;75.29
71643;BME280;59438;45.014;39.006;2023-01-26T10:13:24;102358.94;;;0.31;74.98
71643;BME280;59438;45.014;39.006;2023-01-26T10:15:53;102317.16;;;0.17;75.38
71643;BME280;59438;45.014;39.006;2023-01-26T10:18:26;102320.16;;;0.31;75.46
71643;BME280;59438;45.014;39.006;2023-01-26T10:20:54;102346.88;;;0.58;76.43
71643;BME280;59438;45.014;39.006;2023-01-26T10:23:24;102346.16;;;0.63;75.25
71643;BME280;59438;45.014;39.006;2023-01-26T10:25:52;102326.44;;;0.68;75.26
71643;BME280;59438;45.014;39.006;2023-01-26T10:28:25;102333.75;;;0.81;75.19
71643;BME280;59438;45.014;39.006;2023-01-26T10:30:52;102334.91;;;0.91;75.27
71643;BME280;59438;45.014;39.006;2023-01-26T10:33:23;102321.88;;;0.88;75.16
71643;BME280;59438;45.014;39.006;2023-01-26T10:35:51;102325.84;;;1.07;74.68
71643;BME280;59438;45.014;39.006;2023-01-26T10:40:48;102315.09;;;1.23;74.55
71643;BME280;59438;45.014;39.006;2023-01-26T10:43:17;102289.19;;;1.22;74.39
71643;BME280;59438;45.014;39.006;2023-01-26T10:45:44;102289.34;;;1.29;74.43
71643;BME280;59438;45.014;39.006;2023-01-26T10:48:16;102307.25;;;1.53;74.41
71643;BME280;59438;45.014;39.006;2023-01-26T10:50:43;102307.63;;;1.69;73.99
71643;BME280;59438;45.014;39.006;2023-01-26T10:53:14;102310.66;;;1.86;74.42
71643;BME280;59438;45.014;39.006;2023-01-26T10:55:41;102303.09;;;1.95;73.75
71643;BME280;59438;45.014;39.006;2023-01-26T10:58:46;102300.09;;;2.13;74.84
71643;BME280;59438;45.014;39.006;2023-01-26T11:01:14;102296.03;;;2.26;73.85
71643;BME280;59438;45.014;39.006;2023-01-26T11:03:42;102278.81;;;2.28;73.33
71643;BME280;59438;45.014;39.006;2023-01-26T11:06:27;102266.88;;;2.36;73.25
71643;BME280;59438;45.014;39.006;2023-01-26T11:09:07;102296.91;;;2.66;73.49
71643;BME280;59438;45.014;39.006;2023-01-26T11:11:34;102289.31;;;2.75;72.71
71643;BME280;59438;45.014;39.006;2023-01-26T11:14:11;102296.41;;;2.83;72.35
71643;BME280;59438;45.014;39.006;2023-01-26T11:16:39;102300.91;;;2.92;72.27
71643;BME280;59438;45.014;39.006;2023-01-26T11:19:11;102285.53;;;3.01;72.63
71643;BME280;59438;45.014;39.006;2023-01-26T11:21:43;102285.78;;;3.14;72.11
71643;BME280;59438;45.014;39.006;2023-01-26T11:24:13;102258.88;;;3.10;71.78
71643;BME280;59438;45.014;39.006;2023-01-26T11:26:58;102269.59;;;3.29;71.67
71643;BME280;59438;45.014;39.006;2023-01-26T11:29:46;102285.50;;;3.47;71.20
71643;BME280;59438;45.014;39.006;2023-01-26T11:32:21;102276.84;;;3.47;70.97
71643;BME280;59438;45.014;39.006;2023-01-26T11:35:01;102272.59;;;3.50;70.87
71643;BME280;59438;45.014;39.006;2023-01-26T11:37:38;102283.28;;;3.69;71.15
71643;BME280;59438;45.014;39.006;2023-01-26T11:40:18;102220.34;;;3.35;71.24
71643;BME280;59438;45.014;39.006;2023-01-26T11:42:55;102289.59;;;3.84;70.93
71643;BME280;59438;45.014;39.006;2023-01-26T11:45:26;102291.41;;;3.90;70.43
71643;BME280;59438;45.014;39.006;2023-01-26T11:48:10;102288.00;;;3.91;70.31
71643;BME280;59438;45.014;39.006;2023-01-26T11:50:44;102250.25;;;3.61;70.29
71643;BME280;59438;45.014;39.006;2023-01-26T11:53:30;102285.13;;;3.76;70.77
71643;BME280;59438;45.014;39.006;2023-01-26T11:56:11;102304.34;;;3.86;70.79
71643;BME280;59438;45.014;39.006;2023-01-26T11:58:47;102300.09;;;3.89;70.93
71643;BME280;59438;45.014;39.006;2023-01-26T12:01:21;102295.78;;;3.93;70.63
71643;BME280;59438;45.014;39.006;2023-01-26T12:03:51;102289.72;;;3.92;70.56
71643;BME280;59438;45.014;39.006;2023-01-26T12:06:18;102294.03;;;3.90;70.46
71643;BME280;59438;45.014;39.006;2023-01-26T12:08:50;102296.75;;;3.98;70.34
71643;BME280;59438;45.014;39.006;2023-01-26T12:11:21;102265.25;;;3.79;70.06
71643;BME280;59438;45.014;39.006;2023-01-26T12:13:55;102306.25;;;3.96;69.73
71643;BME280;59438;45.014;39.006;2023-01-26T12:16:32;102301.09;;;3.99;69.77
71643;BME280;59438;45.014;39.006;2023-01-26T12:19:08;102300.09;;;3.91;69.36
71643;BME280;59438;45.014;39.006;2023-01-26T12:21:37;102302.59;;;3.83;69.58
71643;BME280;59438;45.014;39.006;2023-01-26T12:24:12;102309.34;;;3.73;69.43
71643;BME280;59438;45.014;39.006;2023-01-26T12:26:44;102306.53;;;3.61;69.74
71643;BME280;59438;45.014;39.006;2023-01-26T12:29:14;102283.63;;;3.38;70.15
71643;BME280;59438;45.014;39.006;2023-01-26T12:31:48;102305.25;;;3.37;69.88
71643;BME280;59438;45.014;39.006;2023-01-26T12:34:21;102303.34;;;3.29;70.19
71643;BME280;59438;45.014;39.006;2023-01-26T12:36:55;102306.53;;;3.14;70.23
71643;BME280;59438;45.014;39.006;2023-01-26T12:39:30;102307.25;;;3.05;70.05
71643;BME280;59438;45.014;39.006;2023-01-26T12:42:02;102300.91;;;2.91;70.32
71643;BME280;59438;45.014;39.006;2023-01-26T12:44:36;102291.84;;;2.70;70.86
71643;BME280;59438;45.014;39.006;2023-01-26T12:47:11;102298.66;;;2.67;70.76
71643;BME280;59438;45.014;39.006;2023-01-26T12:49:43;102295.81;;;2.54;70.86
71643;BME280;59438;45.014;39.006;2023-01-26T12:52:15;102305.88;;;2.40;71.28